createdAt,value
2023-04-03T00:02:34.864Z,2.53
2023-04-03T00:07:38.652Z,2.55
2023-04-03T00:12:44.039Z,3.15
2023-04-03T00:17:47.718Z,5.28
2023-04-03T00:22:51.595Z,2.80
2023-04-03T00:27:57.088Z,3.75
2023-04-03T00:33:00.940Z,4.07
2023-04-03T00:38:04.764Z,5.72
2023-04-03T00:48:21.782Z,3.38
2023-04-03T00:53:29.043Z,2.72
2023-04-03T00:58:39.381Z,2.90
2023-04-03T01:03:43.365Z,4.13
2023-04-03T01:08:49.422Z,3.97
2023-04-03T01:13:54.944Z,2.55
2023-04-03T01:18:59.234Z,2.65
2023-04-03T01:24:16.586Z,2.50
2023-04-03T01:29:21.954Z,2.72
2023-04-03T01:34:28.573Z,3.57
2023-04-03T01:39:32.329Z,3.67
2023-04-03T01:44:36.038Z,2.92
2023-04-03T01:49:41.402Z,4.28
2023-04-03T01:54:45.143Z,2.70
2023-04-03T01:59:48.906Z,2.65
2023-04-03T02:04:54.322Z,5.32
2023-04-03T02:09:58.061Z,3.73
2023-04-03T02:15:01.820Z,3.00
2023-04-03T02:20:08.351Z,2.85
2023-04-03T02:25:12.442Z,4.35
2023-04-03T02:30:17.122Z,2.42
2023-04-03T02:35:22.580Z,3.22
2023-04-03T02:40:26.339Z,1.63
2023-04-03T02:45:30.030Z,3.97
2023-04-03T02:50:35.734Z,1.95
2023-04-03T02:55:39.733Z,3.22
2023-04-03T03:00:43.975Z,1.30
2023-04-03T03:05:49.329Z,3.03
2023-04-03T03:10:53.818Z,2.80
2023-04-03T03:15:57.743Z,3.10
2023-04-03T03:21:04.192Z,6.22
2023-04-03T03:26:09.588Z,1.95
2023-04-03T03:31:13.508Z,5.90
2023-04-03T03:36:19.097Z,3.92
2023-04-03T03:41:22.858Z,2.60
2023-04-03T03:46:26.730Z,3.97
2023-04-03T03:51:32.112Z,5.15
2023-04-03T03:56:36.557Z,6.00
2023-04-03T04:01:40.397Z,3.85
2023-04-03T04:06:45.887Z,3.80
2023-04-03T04:11:49.690Z,4.70
2023-04-03T04:16:53.456Z,6.03
2023-04-03T04:21:58.848Z,4.90
2023-04-03T04:27:02.591Z,5.03
2023-04-03T04:32:06.507Z,3.20
2023-04-03T04:37:11.917Z,8.18
2023-04-03T04:42:17.471Z,5.83
2023-04-03T04:47:21.843Z,9.93
2023-04-03T04:52:27.205Z,8.35
2023-04-03T04:57:31.051Z,6.60
2023-04-03T05:02:34.862Z,7.97
2023-04-03T05:07:40.286Z,5.35
2023-04-03T05:12:44.021Z,6.70
2023-04-03T05:17:47.797Z,7.22
2023-04-03T05:22:53.197Z,8.02
2023-04-03T05:27:56.866Z,6.77
2023-04-03T05:33:01.373Z,4.68
2023-04-03T05:38:06.949Z,7.88
2023-04-03T05:43:11.091Z,5.10
2023-04-03T05:48:14.877Z,5.80
2023-04-03T05:53:23.814Z,4.45
2023-04-03T05:58:27.561Z,5.10
2023-04-03T06:03:31.349Z,4.40
2023-04-03T06:08:36.777Z,5.75
2023-04-03T06:13:41.105Z,6.63
2023-04-03T06:18:44.830Z,4.25
2023-04-03T06:23:50.171Z,5.13
2023-04-03T06:28:53.826Z,3.57
2023-04-03T06:33:57.488Z,4.57
2023-04-03T06:39:04.060Z,3.85
2023-04-03T06:44:07.727Z,4.47
2023-04-03T06:49:11.675Z,5.82
2023-04-03T06:54:17.009Z,8.88
2023-04-03T06:59:20.689Z,7.22
2023-04-03T07:04:24.400Z,5.07
2023-04-03T07:09:29.736Z,9.95
2023-04-03T07:14:33.373Z,8.20
2023-04-03T07:19:37.038Z,5.30
2023-04-03T07:24:42.460Z,5.45
2023-04-03T07:29:46.133Z,6.63
2023-04-03T07:34:49.802Z,5.50
2023-04-03T07:39:55.238Z,4.57
2023-04-03T07:44:58.904Z,7.47
2023-04-03T07:50:02.632Z,9.07
2023-04-03T07:55:08.938Z,8.25
2023-04-03T08:05:16.193Z,8.77
2023-04-03T08:10:21.560Z,4.88
2023-04-03T08:15:25.242Z,4.57
2023-04-03T08:20:29.441Z,5.55
2023-04-03T08:25:35.184Z,5.55
2023-04-03T08:30:41.479Z,6.95
2023-04-03T08:35:45.386Z,7.20
2023-04-03T08:41:03.087Z,7.68
2023-04-03T08:46:13.032Z,7.10
2023-04-03T08:51:19.592Z,4.25
2023-04-03T08:56:27.409Z,6.65
2023-04-03T09:01:36.817Z,6.68
2023-04-03T09:06:42.338Z,7.88
2023-04-03T09:11:56.984Z,3.83
2023-04-03T09:17:02.370Z,4.20
2023-04-03T09:22:18.218Z,4.90
2023-04-03T09:27:23.572Z,4.80
2023-04-03T09:32:29.948Z,5.38
2023-04-03T09:37:41.018Z,7.70
2023-04-03T09:42:52.005Z,6.20
2023-04-03T09:48:16.774Z,7.68
2023-04-03T09:53:30.564Z,7.20
2023-04-03T09:58:49.756Z,8.77
2023-04-03T10:04:07.938Z,5.57
2023-04-03T10:09:21.629Z,5.70
2023-04-03T10:14:26.952Z,7.53
2023-04-03T10:19:40.828Z,6.82
2023-04-03T10:24:59.948Z,5.00
2023-04-03T10:30:20.565Z,5.50
2023-04-03T10:35:39.121Z,9.88
2023-04-03T10:40:52.433Z,4.65
2023-04-03T10:46:02.277Z,7.03
2023-04-03T10:51:18.161Z,8.45
2023-04-03T10:56:31.111Z,3.10
2023-04-03T11:01:42.380Z,7.07
2023-04-03T11:06:51.285Z,3.28
2023-04-03T11:12:02.412Z,5.55
2023-04-03T11:17:20.761Z,7.85
2023-04-03T11:22:28.505Z,5.63
2023-04-03T11:27:40.253Z,4.53
2023-04-03T11:33:03.944Z,5.25
2023-04-03T11:38:08.067Z,5.30
2023-04-03T11:43:24.466Z,4.07
2023-04-03T11:48:54.312Z,4.70
2023-04-03T11:54:44.012Z,5.18
2023-04-03T11:59:48.738Z,2.90
2023-04-03T12:05:30.238Z,4.30
2023-04-03T12:10:35.634Z,5.15
2023-04-03T12:15:52.261Z,8.18
2023-04-03T12:26:19.967Z,3.90
2023-04-03T12:31:27.148Z,3.28
2023-04-03T12:36:41.730Z,3.00
2023-04-03T12:41:58.070Z,5.00
2023-04-03T12:47:03.797Z,2.78
2023-04-03T12:52:18.499Z,2.80
2023-04-03T12:57:27.234Z,2.28
2023-04-03T13:02:32.649Z,5.28
2023-04-03T13:07:39.014Z,5.90
2023-04-03T13:12:54.330Z,5.05
2023-04-03T13:17:58.521Z,4.00
2023-04-03T13:23:04.795Z,1.83
2023-04-03T13:28:14.569Z,4.18
2023-04-03T13:33:24.262Z,2.63
2023-04-03T13:38:30.152Z,5.03
2023-04-03T13:43:37.765Z,2.35
2023-04-03T13:48:42.971Z,1.90
2023-04-03T13:53:50.510Z,2.80
2023-04-03T13:59:16.235Z,5.22
2023-04-03T14:04:22.265Z,3.60
2023-04-03T14:09:27.793Z,4.25
2023-04-03T14:14:35.045Z,5.22
2023-04-03T14:19:38.938Z,3.13
2023-04-03T14:24:42.642Z,4.15
2023-04-03T14:29:48.446Z,4.25
2023-04-03T14:34:53.017Z,2.37
2023-04-03T14:39:57.823Z,3.38
2023-04-03T14:45:04.446Z,5.18
2023-04-03T14:50:13.216Z,3.55
2023-04-03T14:55:19.436Z,4.30
2023-04-03T15:00:24.957Z,3.20
2023-04-03T15:05:28.728Z,2.37
2023-04-03T15:10:33.269Z,1.92
2023-04-03T15:15:39.515Z,3.85
2023-04-03T15:20:43.622Z,2.35
2023-04-03T15:25:48.538Z,3.05
2023-04-03T15:30:54.041Z,1.50
2023-04-03T15:36:06.642Z,2.17
2023-04-03T15:41:11.482Z,3.20
2023-04-03T15:46:16.972Z,1.77
2023-04-03T15:51:20.718Z,1.93
2023-04-03T15:56:24.406Z,1.83
2023-04-03T16:01:29.865Z,3.20
2023-04-03T16:06:33.659Z,2.60
2023-04-03T16:11:37.343Z,1.77
2023-04-03T16:16:42.765Z,0.82
2023-04-03T16:21:46.432Z,2.40
2023-04-03T16:26:50.046Z,2.47
2023-04-03T16:31:55.549Z,3.08
2023-04-03T16:36:59.379Z,3.75
2023-04-03T16:42:03.411Z,1.98
2023-04-03T16:47:09.320Z,4.32
2023-04-03T16:57:15.851Z,3.20
2023-04-03T17:02:21.807Z,3.30
2023-04-03T17:07:26.656Z,3.88
2023-04-03T17:12:30.340Z,2.67
2023-04-03T17:17:36.216Z,3.03
2023-04-03T17:27:42.816Z,1.55
2023-04-03T17:32:49.174Z,2.08
2023-04-03T17:37:52.873Z,3.08
2023-04-03T17:42:56.588Z,2.63
2023-04-03T17:48:01.985Z,2.15
2023-04-03T17:53:05.729Z,1.77
2023-04-03T17:58:09.433Z,2.60
2023-04-03T18:03:14.771Z,2.70
2023-04-03T18:08:18.500Z,1.70
2023-04-03T18:13:22.200Z,1.75
2023-04-03T18:18:28.494Z,0.95
2023-04-03T18:23:34.514Z,0.82
2023-04-03T18:28:39.344Z,1.25
2023-04-03T18:33:44.736Z,1.75
2023-04-03T18:38:48.489Z,2.90
2023-04-03T18:43:52.319Z,3.15
2023-04-03T18:48:58.356Z,0.95
2023-04-03T18:54:02.724Z,2.55
2023-04-03T19:04:12.694Z,1.90
2023-04-03T19:09:16.820Z,2.08
2023-04-03T19:14:20.541Z,5.07
2023-04-03T19:19:25.943Z,4.93
2023-04-03T19:24:29.600Z,2.20
2023-04-03T19:29:33.251Z,4.53
2023-04-03T19:34:38.549Z,3.55
2023-04-03T19:39:42.241Z,2.60
2023-04-03T19:44:46.662Z,3.25
2023-04-03T19:49:52.992Z,3.47
2023-04-03T19:54:56.607Z,2.20
2023-04-03T20:00:00.256Z,4.68
2023-04-03T20:05:06.048Z,3.60
2023-04-03T20:10:10.644Z,3.80
2023-04-03T20:15:14.543Z,3.08
2023-04-03T20:20:19.943Z,2.60
2023-04-03T20:25:43.760Z,2.80
2023-04-03T20:30:48.206Z,4.55
2023-04-03T20:35:53.631Z,3.97
2023-04-03T20:40:57.334Z,3.05
2023-04-03T20:46:01.712Z,1.60
2023-04-03T20:51:13.738Z,2.53
2023-04-03T20:56:17.666Z,3.42
2023-04-03T21:01:22.641Z,1.77
2023-04-03T21:07:02.963Z,3.60
2023-04-03T21:12:42.872Z,2.72
2023-04-03T21:18:07.112Z,3.58
2023-04-03T21:23:10.786Z,3.45
2023-04-03T21:28:14.474Z,2.90
2023-04-03T21:33:19.750Z,5.30
2023-04-03T21:38:23.438Z,3.20
2023-04-03T21:43:27.097Z,3.22
2023-04-03T21:48:32.379Z,4.75
2023-04-03T21:53:36.055Z,4.65
2023-04-03T21:58:39.769Z,4.45
2023-04-03T22:03:46.057Z,2.38
2023-04-03T22:08:49.693Z,4.18
2023-04-03T22:13:54.160Z,5.38
2023-04-03T22:19:00.396Z,4.25
2023-04-03T22:24:04.160Z,3.67
2023-04-03T22:29:07.777Z,5.97
2023-04-03T22:34:13.217Z,3.63
2023-04-03T22:39:16.822Z,5.70
2023-04-03T22:44:20.488Z,5.07
2023-04-03T22:49:26.815Z,4.32
2023-04-03T22:54:30.473Z,5.85
2023-04-03T22:59:34.134Z,4.28
2023-04-03T23:04:39.469Z,4.40
2023-04-03T23:09:43.132Z,6.18
2023-04-03T23:14:46.806Z,4.63
2023-04-03T23:19:52.097Z,5.93
2023-04-03T23:24:55.778Z,4.37
2023-04-03T23:30:02.124Z,5.45
2023-04-03T23:35:08.193Z,6.05
2023-04-03T23:40:12.804Z,6.35
2023-04-03T23:45:16.604Z,7.22
2023-04-03T23:50:21.920Z,6.20
2023-04-03T23:55:25.651Z,6.20
